createdAt,value
2023-02-18T00:04:32.250Z,11.62
2023-02-18T00:10:55.241Z,11.6
2023-02-18T00:17:15.231Z,11.59
2023-02-18T00:23:38.246Z,11.57
2023-02-18T00:29:58.208Z,11.54
2023-02-18T00:36:21.206Z,11.52
2023-02-18T00:42:41.144Z,11.49
2023-02-18T00:49:04.174Z,11.48
2023-02-18T00:55:24.181Z,11.47
2023-02-18T01:01:47.254Z,11.46
2023-02-18T01:08:07.174Z,11.44
2023-02-18T01:14:30.212Z,11.43
2023-02-18T01:20:50.156Z,11.42
2023-02-18T01:27:13.167Z,11.43
2023-02-18T01:33:33.200Z,11.44
2023-02-18T01:39:56.204Z,11.46
2023-02-18T01:46:16.238Z,11.48
2023-02-18T01:52:39.235Z,11.49
2023-02-18T01:58:59.181Z,11.48
2023-02-18T02:05:22.237Z,11.47
2023-02-18T02:11:42.192Z,11.43
2023-02-18T02:18:05.189Z,11.4
2023-02-18T02:24:25.150Z,11.35
2023-02-18T02:30:48.259Z,11.28
2023-02-18T02:37:08.172Z,11.22
2023-02-18T02:43:31.201Z,11.16
2023-02-18T02:49:51.176Z,11.12
2023-02-18T02:56:14.176Z,11.1
2023-02-18T03:02:34.162Z,11.08
2023-02-18T03:08:57.222Z,11.07
2023-02-18T03:15:17.145Z,11.05
2023-02-18T03:21:40.186Z,11.05
2023-02-18T03:28:00.241Z,11.07
2023-02-18T03:34:23.201Z,11.08
2023-02-18T03:40:43.163Z,11.08
2023-02-18T03:47:06.198Z,11.08
2023-02-18T03:53:26.155Z,11.09
2023-02-18T03:59:49.161Z,11.11
2023-02-18T04:06:09.625Z,11.18
2023-02-18T04:12:32.225Z,11.28
2023-02-18T04:18:52.153Z,11.34
2023-02-18T04:34:27.089Z,11.43
2023-02-18T04:40:47.185Z,11.47
2023-02-18T04:47:10.198Z,11.52
2023-02-18T04:53:30.167Z,11.56
2023-02-18T04:59:53.169Z,11.61
2023-02-18T05:06:13.157Z,11.63
2023-02-18T05:12:36.220Z,11.65
2023-02-18T05:18:56.208Z,11.66
2023-02-18T05:25:19.164Z,11.67
2023-02-18T05:31:39.467Z,11.63
2023-02-18T05:38:02.226Z,11.59
2023-02-18T05:44:22.162Z,11.59
2023-02-18T05:50:45.229Z,11.66
2023-02-18T05:57:05.178Z,11.69
2023-02-18T06:03:28.156Z,11.71
2023-02-18T06:09:48.224Z,11.75
2023-02-18T06:16:11.513Z,11.75
2023-02-18T06:22:31.180Z,11.7
2023-02-18T06:28:54.225Z,11.68
2023-02-18T06:35:14.183Z,11.67
2023-02-18T06:41:37.189Z,11.72
2023-02-18T06:47:57.183Z,11.76
2023-02-18T06:54:20.166Z,11.78
2023-02-18T07:00:40.165Z,11.81
2023-02-18T07:07:03.182Z,11.82
2023-02-18T07:13:23.189Z,11.82
2023-02-18T07:19:46.150Z,11.82
2023-02-18T07:26:06.447Z,11.81
2023-02-18T07:32:29.159Z,11.8
2023-02-18T07:38:49.176Z,11.78
2023-02-18T07:45:12.221Z,11.81
2023-02-18T07:51:32.155Z,11.87
2023-02-18T07:57:55.193Z,11.88
2023-02-18T08:04:15.300Z,11.83
2023-02-18T08:10:38.189Z,11.81
2023-02-18T08:16:58.258Z,11.8
2023-02-18T08:23:21.192Z,11.81
2023-02-18T08:29:41.185Z,11.74
2023-02-18T08:36:04.177Z,11.61
2023-02-18T08:42:24.173Z,11.4
2023-02-18T08:48:47.203Z,11.2
2023-02-18T08:55:07.160Z,11.1
2023-02-18T09:01:30.297Z,11.11
2023-02-18T09:07:50.187Z,11.21
2023-02-18T09:14:13.201Z,11.36
2023-02-18T09:20:33.242Z,11.44
2023-02-18T09:26:56.153Z,11.42
2023-02-18T09:33:16.183Z,11.4
2023-02-18T09:39:39.222Z,11.34
2023-02-18T09:45:59.174Z,11.32
2023-02-18T10:09:05.194Z,11.28
2023-02-18T10:15:28.173Z,11.3
2023-02-18T10:21:48.205Z,11.31
2023-02-18T10:28:11.215Z,11.32
2023-02-18T10:34:31.169Z,11.35
2023-02-18T10:40:54.257Z,11.39
2023-02-18T10:47:14.184Z,11.45
2023-02-18T10:53:37.223Z,11.48
2023-02-18T10:59:57.164Z,11.46
2023-02-18T11:06:20.203Z,11.44
2023-02-18T11:12:40.192Z,11.46
2023-02-18T11:19:03.201Z,11.46
2023-02-18T11:25:23.262Z,11.25
2023-02-18T11:31:46.334Z,10.95
2023-02-18T11:38:06.164Z,10.79
2023-02-18T11:44:29.265Z,10.75
2023-02-18T11:50:49.211Z,10.78
2023-02-18T11:57:12.181Z,10.79
2023-02-18T12:03:34.794Z,10.74
2023-02-18T12:09:55.189Z,10.67
2023-02-18T12:16:15.265Z,10.61
2023-02-18T12:22:38.188Z,10.55
2023-02-18T12:28:58.239Z,10.44
2023-02-18T12:35:21.189Z,10.38
2023-02-18T12:41:41.204Z,10.4
2023-02-18T12:48:04.182Z,10.47
2023-02-18T12:54:24.165Z,10.55
2023-02-18T13:00:47.242Z,10.63
2023-02-18T13:07:07.210Z,10.68
2023-02-18T13:13:30.216Z,10.72
2023-02-18T13:19:50.222Z,10.77
2023-02-18T13:26:13.209Z,10.77
2023-02-18T13:32:33.165Z,10.75
2023-02-18T13:38:56.230Z,10.76
2023-02-18T13:45:16.178Z,10.83
2023-02-18T13:51:39.188Z,10.9
2023-02-18T13:57:59.202Z,10.93
2023-02-18T14:04:22.216Z,10.91
2023-02-18T14:10:42.167Z,10.88
2023-02-18T14:17:05.204Z,10.88
2023-02-18T14:23:25.212Z,10.95
2023-02-18T14:29:48.219Z,11.04
2023-02-18T14:36:08.235Z,11.09
2023-02-18T14:42:31.212Z,11.18
2023-02-18T14:48:51.184Z,11.25
2023-02-18T14:55:14.232Z,11.3
2023-02-18T15:01:34.243Z,11.37
2023-02-18T15:07:57.182Z,11.42
2023-02-18T15:32:14.237Z,11.35
2023-02-18T15:38:34.160Z,11.32
2023-02-18T15:44:57.165Z,11.34
2023-02-18T15:51:18.010Z,11.35
2023-02-18T15:57:40.157Z,11.37
2023-02-18T16:04:00.207Z,11.37
2023-02-18T16:10:23.191Z,11.36
2023-02-18T16:16:43.212Z,11.35
2023-02-18T16:23:06.175Z,11.32
2023-02-18T16:29:26.302Z,11.32
2023-02-18T16:35:50.663Z,11.33
2023-02-18T16:42:09.153Z,11.33
2023-02-18T16:48:32.199Z,11.3
2023-02-18T16:54:52.155Z,11.27
2023-02-18T17:01:15.221Z,11.25
2023-02-18T17:07:35.199Z,11.21
2023-02-18T17:13:58.185Z,11.19
2023-02-18T17:20:18.198Z,11.14
2023-02-18T17:26:41.208Z,11.1
2023-02-18T17:33:03.126Z,11.06
2023-02-18T17:39:24.235Z,11.02
2023-02-18T17:45:44.314Z,10.99
2023-02-18T17:52:07.207Z,10.96
2023-02-18T17:58:27.201Z,10.95
2023-02-18T18:04:50.317Z,10.94
2023-02-18T18:11:10.485Z,10.92
2023-02-18T18:17:33.150Z,10.92
2023-02-18T18:23:53.213Z,10.9
2023-02-18T18:30:16.218Z,10.87
2023-02-18T18:36:36.170Z,10.85
2023-02-18T18:42:59.243Z,10.84
2023-02-18T18:49:19.166Z,10.84
2023-02-18T18:55:42.194Z,10.84
2023-02-18T19:02:02.222Z,10.84
2023-02-18T19:08:25.177Z,10.81
2023-02-18T19:14:45.219Z,10.74
2023-02-18T19:21:08.516Z,10.7
2023-02-18T19:27:28.193Z,10.69
2023-02-18T19:33:51.223Z,10.69
2023-02-18T19:40:11.168Z,10.7
2023-02-18T19:46:34.180Z,10.69
2023-02-18T19:52:54.175Z,10.69
2023-02-18T19:59:17.222Z,10.7
2023-02-18T20:05:37.189Z,10.71
2023-02-18T20:12:00.191Z,10.7
2023-02-18T20:18:20.193Z,10.69
2023-02-18T20:24:43.234Z,10.69
2023-02-18T20:31:03.183Z,10.7
2023-02-18T20:37:26.232Z,10.65
2023-02-18T21:00:13.711Z,10.47
2023-02-18T21:06:33.158Z,10.47
2023-02-18T21:12:56.174Z,10.5
2023-02-18T21:19:16.177Z,10.48
2023-02-18T21:25:39.157Z,10.44
2023-02-18T21:31:59.341Z,10.4
2023-02-18T21:38:22.194Z,10.38
2023-02-18T21:44:43.008Z,10.37
2023-02-18T21:51:05.149Z,10.36
2023-02-18T21:57:25.244Z,10.37
2023-02-18T22:03:48.170Z,10.38
2023-02-18T22:10:08.195Z,10.38
2023-02-18T22:16:31.321Z,10.29
2023-02-18T22:22:51.180Z,10.2
2023-02-18T22:29:14.209Z,10.13
2023-02-18T22:35:34.213Z,10.08
2023-02-18T22:41:57.214Z,10.04
2023-02-18T22:48:19.684Z,9.98
2023-02-18T22:54:40.320Z,9.94
2023-02-18T23:20:12.327Z,9.83
2023-02-18T23:26:32.171Z,9.81
2023-02-18T23:32:55.175Z,9.81
2023-02-18T23:39:15.225Z,9.8
2023-02-18T23:45:38.222Z,9.8
2023-02-18T23:51:58.210Z,9.81
2023-02-18T23:58:21.204Z,9.81
